sensor_id;sensor_type;location;lat;lon;timestamp;temperature;humidity
15554;DHT22;7878;44.632;10.942;2023-09-08T00:01:57;24.40;94.20
15554;DHT22;7878;44.632;10.942;2023-09-08T00:04:23;24.30;94.20
15554;DHT22;7878;44.632;10.942;2023-09-08T00:06:49;24.30;94.20
15554;DHT22;7878;44.632;10.942;2023-09-08T00:09:15;24.30;94.20
15554;DHT22;7878;44.632;10.942;2023-09-08T00:11:40;24.30;94.40
15554;DHT22;7878;44.632;10.942;2023-09-08T00:14:06;24.20;94.30
15554;DHT22;7878;44.632;10.942;2023-09-08T00:16:32;24.20;94.30
15554;DHT22;7878;44.632;10.942;2023-09-08T00:18:58;24.20;94.40
15554;DHT22;7878;44.632;10.942;2023-09-08T00:21:25;24.20;94.40
15554;DHT22;7878;44.632;10.942;2023-09-08T00:23:53;24.20;94.50
15554;DHT22;7878;44.632;10.942;2023-09-08T00:26:20;24.20;94.40
15554;DHT22;7878;44.632;10.942;2023-09-08T00:28:46;24.10;94.50
15554;DHT22;7878;44.632;10.942;2023-09-08T00:31:12;24.00;94.60
15554;DHT22;7878;44.632;10.942;2023-09-08T00:33:38;24.00;94.50
15554;DHT22;7878;44.632;10.942;2023-09-08T00:36:04;23.90;94.50
15554;DHT22;7878;44.632;10.942;2023-09-08T00:38:30;24.10;94.40
15554;DHT22;7878;44.632;10.942;2023-09-08T00:40:55;24.10;94.40
15554;DHT22;7878;44.632;10.942;2023-09-08T00:43:21;24.00;94.50
15554;DHT22;7878;44.632;10.942;2023-09-08T00:45:47;24.00;94.50
15554;DHT22;7878;44.632;10.942;2023-09-08T00:48:13;24.00;94.60
15554;DHT22;7878;44.632;10.942;2023-09-08T00:50:39;24.00;94.60
15554;DHT22;7878;44.632;10.942;2023-09-08T00:53:06;23.90;94.50
15554;DHT22;7878;44.632;10.942;2023-09-08T00:55:33;23.90;94.60
15554;DHT22;7878;44.632;10.942;2023-09-08T00:58:00;23.80;94.50
15554;DHT22;7878;44.632;10.942;2023-09-08T01:00:26;23.80;94.60
15554;DHT22;7878;44.632;10.942;2023-09-08T01:02:52;23.80;94.60
15554;DHT22;7878;44.632;10.942;2023-09-08T01:05:18;23.80;94.40
15554;DHT22;7878;44.632;10.942;2023-09-08T01:07:45;23.90;94.60
15554;DHT22;7878;44.632;10.942;2023-09-08T01:10:12;23.80;94.60
15554;DHT22;7878;44.632;10.942;2023-09-08T01:12:39;23.70;94.90
15554;DHT22;7878;44.632;10.942;2023-09-08T01:15:05;23.70;94.70
15554;DHT22;7878;44.632;10.942;2023-09-08T01:17:31;23.70;94.60
15554;DHT22;7878;44.632;10.942;2023-09-08T01:20:04;23.70;94.80
15554;DHT22;7878;44.632;10.942;2023-09-08T01:23:24;23.60;94.90
15554;DHT22;7878;44.632;10.942;2023-09-08T01:25:31;23.60;95.50
15554;DHT22;7878;44.632;10.942;2023-09-08T01:28:00;23.60;94.90
15554;DHT22;7878;44.632;10.942;2023-09-08T01:30:28;23.60;95.00
15554;DHT22;7878;44.632;10.942;2023-09-08T01:32:55;23.60;94.90
15554;DHT22;7878;44.632;10.942;2023-09-08T01:35:21;23.60;94.90
15554;DHT22;7878;44.632;10.942;2023-09-08T01:37:48;23.60;94.80
15554;DHT22;7878;44.632;10.942;2023-09-08T01:40:14;23.50;94.80
15554;DHT22;7878;44.632;10.942;2023-09-08T01:42:42;23.50;94.80
15554;DHT22;7878;44.632;10.942;2023-09-08T01:45:08;23.50;94.90
15554;DHT22;7878;44.632;10.942;2023-09-08T01:47:34;23.50;94.80
15554;DHT22;7878;44.632;10.942;2023-09-08T01:50:00;23.40;94.80
15554;DHT22;7878;44.632;10.942;2023-09-08T01:52:26;23.40;94.90
15554;DHT22;7878;44.632;10.942;2023-09-08T01:54:52;23.30;94.80
15554;DHT22;7878;44.632;10.942;2023-09-08T01:57:18;23.30;94.90
15554;DHT22;7878;44.632;10.942;2023-09-08T01:59:43;23.30;94.90
15554;DHT22;7878;44.632;10.942;2023-09-08T02:02:10;23.30;95.00
15554;DHT22;7878;44.632;10.942;2023-09-08T02:04:36;23.30;95.00
15554;DHT22;7878;44.632;10.942;2023-09-08T02:07:02;23.30;95.10
15554;DHT22;7878;44.632;10.942;2023-09-08T02:09:36;23.30;95.00
15554;DHT22;7878;44.632;10.942;2023-09-08T02:12:02;23.30;95.70
15554;DHT22;7878;44.632;10.942;2023-09-08T02:14:29;23.20;95.00
15554;DHT22;7878;44.632;10.942;2023-09-08T02:16:55;23.20;95.00
15554;DHT22;7878;44.632;10.942;2023-09-08T02:19:22;23.20;95.10
15554;DHT22;7878;44.632;10.942;2023-09-08T02:21:48;23.20;95.20
15554;DHT22;7878;44.632;10.942;2023-09-08T02:24:14;23.20;95.20
15554;DHT22;7878;44.632;10.942;2023-09-08T02:26:41;23.20;95.20
15554;DHT22;7878;44.632;10.942;2023-09-08T02:29:07;23.10;95.30
15554;DHT22;7878;44.632;10.942;2023-09-08T02:31:33;23.10;95.20
15554;DHT22;7878;44.632;10.942;2023-09-08T02:33:59;23.10;95.20
15554;DHT22;7878;44.632;10.942;2023-09-08T02:36:25;23.20;95.20
15554;DHT22;7878;44.632;10.942;2023-09-08T02:38:52;23.20;95.20
15554;DHT22;7878;44.632;10.942;2023-09-08T02:41:18;23.10;95.20
15554;DHT22;7878;44.632;10.942;2023-09-08T02:43:44;23.00;95.10
15554;DHT22;7878;44.632;10.942;2023-09-08T02:46:10;23.00;95.20
15554;DHT22;7878;44.632;10.942;2023-09-08T02:48:36;23.00;95.10
15554;DHT22;7878;44.632;10.942;2023-09-08T02:51:01;23.00;95.20
15554;DHT22;7878;44.632;10.942;2023-09-08T02:53:27;23.00;95.10
15554;DHT22;7878;44.632;10.942;2023-09-08T02:55:57;23.00;95.10
15554;DHT22;7878;44.632;10.942;2023-09-08T02:58:24;23.00;95.50
15554;DHT22;7878;44.632;10.942;2023-09-08T03:00:50;23.00;95.10
15554;DHT22;7878;44.632;10.942;2023-09-08T03:03:19;23.00;95.10
15554;DHT22;7878;44.632;10.942;2023-09-08T03:05:45;23.00;95.10
15554;DHT22;7878;44.632;10.942;2023-09-08T03:08:11;22.90;95.20
15554;DHT22;7878;44.632;10.942;2023-09-08T03:10:36;22.80;95.20
15554;DHT22;7878;44.632;10.942;2023-09-08T03:13:03;22.80;95.20
15554;DHT22;7878;44.632;10.942;2023-09-08T03:15:28;22.90;95.30
15554;DHT22;7878;44.632;10.942;2023-09-08T03:17:55;22.90;95.30
15554;DHT22;7878;44.632;10.942;2023-09-08T03:20:21;22.90;95.30
15554;DHT22;7878;44.632;10.942;2023-09-08T03:22:47;22.80;95.30
15554;DHT22;7878;44.632;10.942;2023-09-08T03:25:15;22.80;95.30
15554;DHT22;7878;44.632;10.942;2023-09-08T03:27:41;22.80;95.70
15554;DHT22;7878;44.632;10.942;2023-09-08T03:30:07;22.70;95.40
15554;DHT22;7878;44.632;10.942;2023-09-08T03:32:33;22.80;95.40
15554;DHT22;7878;44.632;10.942;2023-09-08T03:34:59;22.70;95.40
15554;DHT22;7878;44.632;10.942;2023-09-08T03:37:24;22.60;95.50
15554;DHT22;7878;44.632;10.942;2023-09-08T03:39:52;22.70;95.40
15554;DHT22;7878;44.632;10.942;2023-09-08T03:42:18;22.70;95.50
15554;DHT22;7878;44.632;10.942;2023-09-08T03:44:43;22.70;95.40
15554;DHT22;7878;44.632;10.942;2023-09-08T03:47:09;22.80;95.50
15554;DHT22;7878;44.632;10.942;2023-09-08T03:49:35;22.70;95.40
15554;DHT22;7878;44.632;10.942;2023-09-08T03:52:01;22.70;95.60
15554;DHT22;7878;44.632;10.942;2023-09-08T03:54:26;22.60;95.60
15554;DHT22;7878;44.632;10.942;2023-09-08T03:56:52;22.60;95.50
15554;DHT22;7878;44.632;10.942;2023-09-08T03:59:18;22.70;95.50
15554;DHT22;7878;44.632;10.942;2023-09-08T04:01:43;22.70;95.50
15554;DHT22;7878;44.632;10.942;2023-09-08T04:04:09;22.70;95.50
15554;DHT22;7878;44.632;10.942;2023-09-08T04:06:35;22.60;95.60
15554;DHT22;7878;44.632;10.942;2023-09-08T04:09:00;22.50;95.70
15554;DHT22;7878;44.632;10.942;2023-09-08T04:11:26;22.50;95.60
15554;DHT22;7878;44.632;10.942;2023-09-08T04:13:52;22.60;95.60
15554;DHT22;7878;44.632;10.942;2023-09-08T04:16:18;22.60;95.70
15554;DHT22;7878;44.632;10.942;2023-09-08T04:18:43;22.60;95.70
15554;DHT22;7878;44.632;10.942;2023-09-08T04:21:10;22.50;95.70
15554;DHT22;7878;44.632;10.942;2023-09-08T04:23:35;22.50;95.80
15554;DHT22;7878;44.632;10.942;2023-09-08T04:26:01;22.50;95.70
15554;DHT22;7878;44.632;10.942;2023-09-08T04:28:27;22.60;96.00
15554;DHT22;7878;44.632;10.942;2023-09-08T04:30:53;22.60;95.80
15554;DHT22;7878;44.632;10.942;2023-09-08T04:33:18;22.60;95.70
15554;DHT22;7878;44.632;10.942;2023-09-08T04:35:44;22.50;95.80
15554;DHT22;7878;44.632;10.942;2023-09-08T04:38:10;22.40;95.80
15554;DHT22;7878;44.632;10.942;2023-09-08T04:40:39;22.50;95.80
15554;DHT22;7878;44.632;10.942;2023-09-08T04:43:05;22.50;95.80
15554;DHT22;7878;44.632;10.942;2023-09-08T04:45:30;22.60;95.90
15554;DHT22;7878;44.632;10.942;2023-09-08T04:47:56;22.60;95.80
15554;DHT22;7878;44.632;10.942;2023-09-08T04:50:22;22.60;95.80
15554;DHT22;7878;44.632;10.942;2023-09-08T04:52:47;22.60;95.80
15554;DHT22;7878;44.632;10.942;2023-09-08T04:55:13;22.50;95.70
15554;DHT22;7878;44.632;10.942;2023-09-08T04:57:39;22.50;95.80
15554;DHT22;7878;44.632;10.942;2023-09-08T05:00:06;22.50;96.10
15554;DHT22;7878;44.632;10.942;2023-09-08T05:02:32;22.50;96.20
15554;DHT22;7878;44.632;10.942;2023-09-08T05:04:57;22.50;95.80
15554;DHT22;7878;44.632;10.942;2023-09-08T05:07:23;22.50;95.80
15554;DHT22;7878;44.632;10.942;2023-09-08T05:09:49;22.40;95.80
15554;DHT22;7878;44.632;10.942;2023-09-08T05:12:15;22.40;95.90
15554;DHT22;7878;44.632;10.942;2023-09-08T05:14:40;22.50;95.90
15554;DHT22;7878;44.632;10.942;2023-09-08T05:17:06;22.50;95.90
15554;DHT22;7878;44.632;10.942;2023-09-08T05:19:32;22.40;95.90
15554;DHT22;7878;44.632;10.942;2023-09-08T05:21:58;22.40;95.90
15554;DHT22;7878;44.632;10.942;2023-09-08T05:24:23;22.40;96.00
15554;DHT22;7878;44.632;10.942;2023-09-08T05:26:51;22.40;95.90
15554;DHT22;7878;44.632;10.942;2023-09-08T05:29:16;22.50;96.00
15554;DHT22;7878;44.632;10.942;2023-09-08T05:31:42;22.40;95.90
15554;DHT22;7878;44.632;10.942;2023-09-08T05:34:09;22.40;96.00
15554;DHT22;7878;44.632;10.942;2023-09-08T05:36:34;22.40;96.10
15554;DHT22;7878;44.632;10.942;2023-09-08T05:39:03;22.40;96.10
15554;DHT22;7878;44.632;10.942;2023-09-08T05:41:29;22.50;96.10
15554;DHT22;7878;44.632;10.942;2023-09-08T05:43:55;22.50;96.10
15554;DHT22;7878;44.632;10.942;2023-09-08T05:46:20;22.50;96.10
15554;DHT22;7878;44.632;10.942;2023-09-08T05:48:46;22.50;96.00
15554;DHT22;7878;44.632;10.942;2023-09-08T05:51:13;22.60;96.00
15554;DHT22;7878;44.632;10.942;2023-09-08T05:53:39;22.50;96.20
15554;DHT22;7878;44.632;10.942;2023-09-08T05:56:06;22.50;96.20
15554;DHT22;7878;44.632;10.942;2023-09-08T05:58:32;22.50;96.10
15554;DHT22;7878;44.632;10.942;2023-09-08T06:01:02;22.50;96.30
15554;DHT22;7878;44.632;10.942;2023-09-08T06:03:29;22.50;96.30
15554;DHT22;7878;44.632;10.942;2023-09-08T06:05:55;22.50;96.30
15554;DHT22;7878;44.632;10.942;2023-09-08T06:08:21;22.50;96.50
15554;DHT22;7878;44.632;10.942;2023-09-08T06:10:46;22.50;96.40
15554;DHT22;7878;44.632;10.942;2023-09-08T06:13:12;22.60;96.40
15554;DHT22;7878;44.632;10.942;2023-09-08T06:15:38;22.60;96.40
15554;DHT22;7878;44.632;10.942;2023-09-08T06:18:04;22.60;96.40
15554;DHT22;7878;44.632;10.942;2023-09-08T06:20:29;22.60;96.50
15554;DHT22;7878;44.632;10.942;2023-09-08T06:22:55;22.70;96.50
15554;DHT22;7878;44.632;10.942;2023-09-08T06:25:21;22.70;96.50
15554;DHT22;7878;44.632;10.942;2023-09-08T06:27:46;22.80;96.70
15554;DHT22;7878;44.632;10.942;2023-09-08T06:30:12;22.80;96.70
15554;DHT22;7878;44.632;10.942;2023-09-08T06:32:39;22.80;96.60
15554;DHT22;7878;44.632;10.942;2023-09-08T06:35:05;22.90;96.80
15554;DHT22;7878;44.632;10.942;2023-09-08T06:37:38;23.00;96.80
15554;DHT22;7878;44.632;10.942;2023-09-08T06:40:05;23.00;97.50
15554;DHT22;7878;44.632;10.942;2023-09-08T06:42:31;23.00;96.90
15554;DHT22;7878;44.632;10.942;2023-09-08T06:44:57;23.00;96.80
15554;DHT22;7878;44.632;10.942;2023-09-08T06:47:22;23.20;96.90
15554;DHT22;7878;44.632;10.942;2023-09-08T06:49:48;23.20;96.80
15554;DHT22;7878;44.632;10.942;2023-09-08T06:52:14;23.30;96.70
15554;DHT22;7878;44.632;10.942;2023-09-08T06:54:39;23.40;96.80
15554;DHT22;7878;44.632;10.942;2023-09-08T06:57:05;23.40;96.70
15554;DHT22;7878;44.632;10.942;2023-09-08T06:59:31;23.40;96.70
15554;DHT22;7878;44.632;10.942;2023-09-08T07:01:56;23.60;96.70
15554;DHT22;7878;44.632;10.942;2023-09-08T07:04:22;23.70;96.80
15554;DHT22;7878;44.632;10.942;2023-09-08T07:06:48;23.80;96.60
15554;DHT22;7878;44.632;10.942;2023-09-08T07:09:15;23.80;96.70
15554;DHT22;7878;44.632;10.942;2023-09-08T07:11:41;23.90;96.60
15554;DHT22;7878;44.632;10.942;2023-09-08T07:14:07;24.00;96.60
15554;DHT22;7878;44.632;10.942;2023-09-08T07:16:32;24.00;96.60
15554;DHT22;7878;44.632;10.942;2023-09-08T07:18:58;24.10;96.70
15554;DHT22;7878;44.632;10.942;2023-09-08T07:21:26;24.10;96.80
15554;DHT22;7878;44.632;10.942;2023-09-08T07:23:52;24.20;96.70
15554;DHT22;7878;44.632;10.942;2023-09-08T07:26:19;24.20;96.70
15554;DHT22;7878;44.632;10.942;2023-09-08T07:28:45;24.20;96.80
15554;DHT22;7878;44.632;10.942;2023-09-08T07:31:11;24.20;96.90
15554;DHT22;7878;44.632;10.942;2023-09-08T07:33:37;24.30;96.90
15554;DHT22;7878;44.632;10.942;2023-09-08T07:36:04;24.30;97.00
15554;DHT22;7878;44.632;10.942;2023-09-08T07:38:31;24.40;96.90
15554;DHT22;7878;44.632;10.942;2023-09-08T07:40:56;24.50;96.80
15554;DHT22;7878;44.632;10.942;2023-09-08T07:43:22;24.50;96.80
15554;DHT22;7878;44.632;10.942;2023-09-08T07:45:48;24.60;96.90
15554;DHT22;7878;44.632;10.942;2023-09-08T07:48:14;24.60;96.80
15554;DHT22;7878;44.632;10.942;2023-09-08T07:50:39;24.70;96.80
15554;DHT22;7878;44.632;10.942;2023-09-08T07:53:05;24.60;96.60
15554;DHT22;7878;44.632;10.942;2023-09-08T07:55:30;24.70;96.60
15554;DHT22;7878;44.632;10.942;2023-09-08T07:57:57;24.80;96.80
15554;DHT22;7878;44.632;10.942;2023-09-08T08:00:23;24.80;96.50
15554;DHT22;7878;44.632;10.942;2023-09-08T08:02:53;24.90;96.30
15554;DHT22;7878;44.632;10.942;2023-09-08T08:05:19;24.90;96.50
15554;DHT22;7878;44.632;10.942;2023-09-08T08:07:45;25.00;96.50
15554;DHT22;7878;44.632;10.942;2023-09-08T08:10:11;25.00;95.90
15554;DHT22;7878;44.632;10.942;2023-09-08T08:12:38;25.00;95.80
15554;DHT22;7878;44.632;10.942;2023-09-08T08:15:04;25.10;95.80
15554;DHT22;7878;44.632;10.942;2023-09-08T08:17:31;25.10;95.70
15554;DHT22;7878;44.632;10.942;2023-09-08T08:19:57;25.20;95.90
15554;DHT22;7878;44.632;10.942;2023-09-08T08:22:32;25.30;95.70
15554;DHT22;7878;44.632;10.942;2023-09-08T08:24:58;25.40;95.60
15554;DHT22;7878;44.632;10.942;2023-09-08T08:27:24;25.40;95.60
15554;DHT22;7878;44.632;10.942;2023-09-08T08:29:50;25.40;95.50
15554;DHT22;7878;44.632;10.942;2023-09-08T08:32:16;25.50;95.30
15554;DHT22;7878;44.632;10.942;2023-09-08T08:34:42;25.60;95.40
15554;DHT22;7878;44.632;10.942;2023-09-08T08:37:08;25.70;95.40
15554;DHT22;7878;44.632;10.942;2023-09-08T08:39:34;25.70;95.40
15554;DHT22;7878;44.632;10.942;2023-09-08T08:42:07;25.70;95.10
15554;DHT22;7878;44.632;10.942;2023-09-08T08:44:33;25.70;94.60
15554;DHT22;7878;44.632;10.942;2023-09-08T08:47:00;25.70;94.80
15554;DHT22;7878;44.632;10.942;2023-09-08T08:49:28;25.90;94.80
15554;DHT22;7878;44.632;10.942;2023-09-08T08:51:56;25.90;94.80
15554;DHT22;7878;44.632;10.942;2023-09-08T08:54:24;25.90;94.90
15554;DHT22;7878;44.632;10.942;2023-09-08T08:56:50;26.00;94.90
15554;DHT22;7878;44.632;10.942;2023-09-08T08:59:16;26.00;94.50
15554;DHT22;7878;44.632;10.942;2023-09-08T09:01:43;26.00;94.50
15554;DHT22;7878;44.632;10.942;2023-09-08T09:04:10;26.10;94.50
15554;DHT22;7878;44.632;10.942;2023-09-08T09:06:36;26.20;94.50
15554;DHT22;7878;44.632;10.942;2023-09-08T09:09:02;26.20;94.30
15554;DHT22;7878;44.632;10.942;2023-09-08T09:11:33;26.30;94.40
15554;DHT22;7878;44.632;10.942;2023-09-08T09:13:59;26.40;94.40
15554;DHT22;7878;44.632;10.942;2023-09-08T09:16:24;26.40;93.80
15554;DHT22;7878;44.632;10.942;2023-09-08T09:18:58;26.50;94.20
15554;DHT22;7878;44.632;10.942;2023-09-08T09:21:40;26.60;93.80
15554;DHT22;7878;44.632;10.942;2023-09-08T09:24:06;26.50;93.30
15554;DHT22;7878;44.632;10.942;2023-09-08T09:26:32;26.60;93.50
15554;DHT22;7878;44.632;10.942;2023-09-08T09:28:58;26.60;93.80
15554;DHT22;7878;44.632;10.942;2023-09-08T09:31:25;26.70;93.60
15554;DHT22;7878;44.632;10.942;2023-09-08T09:34:04;26.70;92.80
15554;DHT22;7878;44.632;10.942;2023-09-08T09:36:30;26.80;92.50
15554;DHT22;7878;44.632;10.942;2023-09-08T09:39:00;26.70;92.90
15554;DHT22;7878;44.632;10.942;2023-09-08T09:41:28;26.70;92.80
15554;DHT22;7878;44.632;10.942;2023-09-08T09:43:55;26.80;92.70
15554;DHT22;7878;44.632;10.942;2023-09-08T09:46:20;26.90;93.20
15554;DHT22;7878;44.632;10.942;2023-09-08T09:48:51;26.70;92.70
15554;DHT22;7878;44.632;10.942;2023-09-08T09:51:19;26.80;92.80
15554;DHT22;7878;44.632;10.942;2023-09-08T09:53:45;26.80;93.20
15554;DHT22;7878;44.632;10.942;2023-09-08T09:56:13;27.00;93.10
15554;DHT22;7878;44.632;10.942;2023-09-08T09:58:40;27.00;93.30
15554;DHT22;7878;44.632;10.942;2023-09-08T10:01:08;27.00;93.30
15554;DHT22;7878;44.632;10.942;2023-09-08T10:03:38;27.10;93.30
15554;DHT22;7878;44.632;10.942;2023-09-08T10:06:05;27.20;92.60
15554;DHT22;7878;44.632;10.942;2023-09-08T10:08:33;27.20;93.20
15554;DHT22;7878;44.632;10.942;2023-09-08T10:11:06;27.20;92.50
15554;DHT22;7878;44.632;10.942;2023-09-08T10:13:42;27.20;92.80
15554;DHT22;7878;44.632;10.942;2023-09-08T10:16:13;27.30;93.00
15554;DHT22;7878;44.632;10.942;2023-09-08T10:18:44;27.40;93.10
15554;DHT22;7878;44.632;10.942;2023-09-08T10:21:13;27.50;92.30
15554;DHT22;7878;44.632;10.942;2023-09-08T10:23:49;27.50;92.70
15554;DHT22;7878;44.632;10.942;2023-09-08T10:26:22;27.50;91.90
15554;DHT22;7878;44.632;10.942;2023-09-08T10:28:51;27.50;92.70
15554;DHT22;7878;44.632;10.942;2023-09-08T10:31:22;27.60;92.80
15554;DHT22;7878;44.632;10.942;2023-09-08T10:33:49;27.80;92.80
15554;DHT22;7878;44.632;10.942;2023-09-08T10:36:15;27.80;93.10
15554;DHT22;7878;44.632;10.942;2023-09-08T10:38:40;27.90;92.80
15554;DHT22;7878;44.632;10.942;2023-09-08T10:43:45;27.90;91.90
15554;DHT22;7878;44.632;10.942;2023-09-08T10:46:21;27.90;92.30
15554;DHT22;7878;44.632;10.942;2023-09-08T10:48:47;27.90;92.00
15554;DHT22;7878;44.632;10.942;2023-09-08T10:51:13;28.00;92.50
15554;DHT22;7878;44.632;10.942;2023-09-08T10:53:40;28.10;92.30
15554;DHT22;7878;44.632;10.942;2023-09-08T10:56:05;28.30;92.50
15554;DHT22;7878;44.632;10.942;2023-09-08T10:58:36;29.80;92.30
15554;DHT22;7878;44.632;10.942;2023-09-08T11:01:13;31.20;91.00
15554;DHT22;7878;44.632;10.942;2023-09-08T11:06:11;31.10;90.80
15554;DHT22;7878;44.632;10.942;2023-09-08T11:08:44;30.60;90.90
15554;DHT22;7878;44.632;10.942;2023-09-08T11:11:11;30.30;89.10
15554;DHT22;7878;44.632;10.942;2023-09-08T11:13:38;30.40;90.70
15554;DHT22;7878;44.632;10.942;2023-09-08T11:16:05;31.00;90.00
15554;DHT22;7878;44.632;10.942;2023-09-08T11:18:32;32.40;89.00
15554;DHT22;7878;44.632;10.942;2023-09-08T11:21:01;34.30;88.90
15554;DHT22;7878;44.632;10.942;2023-09-08T11:23:30;36.40;86.00
15554;DHT22;7878;44.632;10.942;2023-09-08T11:25:56;38.10;82.90
15554;DHT22;7878;44.632;10.942;2023-09-08T11:28:23;39.40;79.80
15554;DHT22;7878;44.632;10.942;2023-09-08T11:30:50;39.70;77.90
15554;DHT22;7878;44.632;10.942;2023-09-08T11:33:16;40.10;77.80
15554;DHT22;7878;44.632;10.942;2023-09-08T11:35:44;40.10;78.00
15554;DHT22;7878;44.632;10.942;2023-09-08T11:38:11;39.40;77.80
15554;DHT22;7878;44.632;10.942;2023-09-08T11:40:37;38.30;79.00
15554;DHT22;7878;44.632;10.942;2023-09-08T11:43:05;37.40;75.80
15554;DHT22;7878;44.632;10.942;2023-09-08T11:45:34;36.30;79.30
15554;DHT22;7878;44.632;10.942;2023-09-08T11:48:00;35.20;78.90
15554;DHT22;7878;44.632;10.942;2023-09-08T11:50:27;34.50;81.30
15554;DHT22;7878;44.632;10.942;2023-09-08T11:52:54;33.80;82.60
15554;DHT22;7878;44.632;10.942;2023-09-08T11:55:21;33.00;82.50
15554;DHT22;7878;44.632;10.942;2023-09-08T11:57:51;32.70;83.30
15554;DHT22;7878;44.632;10.942;2023-09-08T12:00:21;32.40;84.20
15554;DHT22;7878;44.632;10.942;2023-09-08T12:02:49;32.10;83.80
15554;DHT22;7878;44.632;10.942;2023-09-08T12:05:27;31.90;85.50
15554;DHT22;7878;44.632;10.942;2023-09-08T12:07:58;31.80;82.80
15554;DHT22;7878;44.632;10.942;2023-09-08T12:10:25;31.60;85.30
15554;DHT22;7878;44.632;10.942;2023-09-08T12:12:53;31.40;85.00
15554;DHT22;7878;44.632;10.942;2023-09-08T12:18:05;31.10;82.20
15554;DHT22;7878;44.632;10.942;2023-09-08T12:20:33;30.90;83.70
15554;DHT22;7878;44.632;10.942;2023-09-08T12:23:05;31.00;86.50
15554;DHT22;7878;44.632;10.942;2023-09-08T12:25:33;31.00;84.40
15554;DHT22;7878;44.632;10.942;2023-09-08T12:28:01;30.90;86.00
15554;DHT22;7878;44.632;10.942;2023-09-08T12:30:31;30.90;86.70
15554;DHT22;7878;44.632;10.942;2023-09-08T12:33:02;30.90;85.40
15554;DHT22;7878;44.632;10.942;2023-09-08T12:35:28;30.80;85.10
15554;DHT22;7878;44.632;10.942;2023-09-08T12:40:28;30.80;85.20
15554;DHT22;7878;44.632;10.942;2023-09-08T12:42:55;30.70;86.30
15554;DHT22;7878;44.632;10.942;2023-09-08T12:45:22;30.70;86.10
15554;DHT22;7878;44.632;10.942;2023-09-08T12:47:49;30.50;86.80
15554;DHT22;7878;44.632;10.942;2023-09-08T12:50:16;30.50;86.10
15554;DHT22;7878;44.632;10.942;2023-09-08T12:52:42;30.40;86.60
15554;DHT22;7878;44.632;10.942;2023-09-08T12:55:09;30.30;86.30
15554;DHT22;7878;44.632;10.942;2023-09-08T12:57:36;30.30;86.80
15554;DHT22;7878;44.632;10.942;2023-09-08T13:00:03;30.30;86.00
15554;DHT22;7878;44.632;10.942;2023-09-08T13:02:29;30.20;86.00
15554;DHT22;7878;44.632;10.942;2023-09-08T13:04:56;30.20;86.40
15554;DHT22;7878;44.632;10.942;2023-09-08T13:07:23;30.20;86.90
15554;DHT22;7878;44.632;10.942;2023-09-08T13:09:50;30.20;86.50
15554;DHT22;7878;44.632;10.942;2023-09-08T13:12:18;30.20;87.50
15554;DHT22;7878;44.632;10.942;2023-09-08T13:14:44;30.10;86.20
15554;DHT22;7878;44.632;10.942;2023-09-08T13:17:11;30.10;87.10
15554;DHT22;7878;44.632;10.942;2023-09-08T13:19:37;30.20;87.20
15554;DHT22;7878;44.632;10.942;2023-09-08T13:22:04;30.10;86.40
15554;DHT22;7878;44.632;10.942;2023-09-08T13:24:31;30.20;87.10
15554;DHT22;7878;44.632;10.942;2023-09-08T13:27:00;30.20;87.20
15554;DHT22;7878;44.632;10.942;2023-09-08T13:29:27;30.10;85.80
15554;DHT22;7878;44.632;10.942;2023-09-08T13:31:54;30.10;87.00
15554;DHT22;7878;44.632;10.942;2023-09-08T13:34:21;30.10;87.10
15554;DHT22;7878;44.632;10.942;2023-09-08T13:36:48;30.20;86.80
15554;DHT22;7878;44.632;10.942;2023-09-08T13:39:14;30.20;86.50
15554;DHT22;7878;44.632;10.942;2023-09-08T13:41:51;30.20;85.90
15554;DHT22;7878;44.632;10.942;2023-09-08T13:44:19;30.20;85.40
15554;DHT22;7878;44.632;10.942;2023-09-08T13:46:46;30.20;86.70
15554;DHT22;7878;44.632;10.942;2023-09-08T13:49:13;30.10;87.00
15554;DHT22;7878;44.632;10.942;2023-09-08T13:51:40;30.10;87.00
15554;DHT22;7878;44.632;10.942;2023-09-08T13:54:08;30.10;87.20
15554;DHT22;7878;44.632;10.942;2023-09-08T13:56:35;30.10;87.00
15554;DHT22;7878;44.632;10.942;2023-09-08T13:59:01;30.20;87.20
15554;DHT22;7878;44.632;10.942;2023-09-08T14:01:28;30.20;86.80
15554;DHT22;7878;44.632;10.942;2023-09-08T14:03:58;30.10;86.70
15554;DHT22;7878;44.632;10.942;2023-09-08T14:06:28;30.10;86.60
15554;DHT22;7878;44.632;10.942;2023-09-08T14:08:54;30.10;86.70
15554;DHT22;7878;44.632;10.942;2023-09-08T14:11:22;30.10;85.70
15554;DHT22;7878;44.632;10.942;2023-09-08T14:13:48;30.10;86.10
15554;DHT22;7878;44.632;10.942;2023-09-08T14:16:15;30.20;86.90
15554;DHT22;7878;44.632;10.942;2023-09-08T14:18:42;30.00;86.00
15554;DHT22;7878;44.632;10.942;2023-09-08T14:21:08;30.00;86.20
15554;DHT22;7878;44.632;10.942;2023-09-08T14:23:35;30.00;86.80
15554;DHT22;7878;44.632;10.942;2023-09-08T14:26:03;30.00;86.60
15554;DHT22;7878;44.632;10.942;2023-09-08T14:28:30;30.00;86.30
15554;DHT22;7878;44.632;10.942;2023-09-08T14:31:00;29.90;85.80
15554;DHT22;7878;44.632;10.942;2023-09-08T14:33:26;29.90;87.00
15554;DHT22;7878;44.632;10.942;2023-09-08T14:35:53;29.90;86.80
15554;DHT22;7878;44.632;10.942;2023-09-08T14:38:20;29.90;86.80
15554;DHT22;7878;44.632;10.942;2023-09-08T14:41:00;30.00;87.00
15554;DHT22;7878;44.632;10.942;2023-09-08T14:43:28;30.00;85.30
15554;DHT22;7878;44.632;10.942;2023-09-08T14:45:54;30.00;85.60
15554;DHT22;7878;44.632;10.942;2023-09-08T14:48:23;30.00;86.00
15554;DHT22;7878;44.632;10.942;2023-09-08T14:50:50;30.00;85.70
15554;DHT22;7878;44.632;10.942;2023-09-08T14:53:17;30.00;85.30
15554;DHT22;7878;44.632;10.942;2023-09-08T14:55:43;29.90;85.60
15554;DHT22;7878;44.632;10.942;2023-09-08T14:58:11;30.00;86.00
15554;DHT22;7878;44.632;10.942;2023-09-08T15:00:38;30.00;85.50
15554;DHT22;7878;44.632;10.942;2023-09-08T15:03:05;30.00;85.70
15554;DHT22;7878;44.632;10.942;2023-09-08T15:05:32;30.00;86.10
15554;DHT22;7878;44.632;10.942;2023-09-08T15:07:58;30.00;85.60
15554;DHT22;7878;44.632;10.942;2023-09-08T15:10:24;29.90;85.80
15554;DHT22;7878;44.632;10.942;2023-09-08T15:12:50;29.90;86.60
15554;DHT22;7878;44.632;10.942;2023-09-08T15:15:16;29.90;85.10
15554;DHT22;7878;44.632;10.942;2023-09-08T15:17:52;29.90;85.20
15554;DHT22;7878;44.632;10.942;2023-09-08T15:20:19;29.90;85.60
15554;DHT22;7878;44.632;10.942;2023-09-08T15:22:45;29.90;85.20
15554;DHT22;7878;44.632;10.942;2023-09-08T15:25:12;29.90;85.70
15554;DHT22;7878;44.632;10.942;2023-09-08T15:27:38;29.90;85.20
15554;DHT22;7878;44.632;10.942;2023-09-08T15:30:05;29.90;85.50
15554;DHT22;7878;44.632;10.942;2023-09-08T15:32:31;30.00;84.90
15554;DHT22;7878;44.632;10.942;2023-09-08T15:34:57;30.00;85.00
15554;DHT22;7878;44.632;10.942;2023-09-08T15:37:23;30.00;85.00
15554;DHT22;7878;44.632;10.942;2023-09-08T15:39:50;29.90;84.00